Ulrum, Netherlands
Current Conditions -  °F | °C
As of 6:55 AM on Sunday 23 Nov 2014 (Local Time) from EHMA Reporting Station
Few Clouds Few Clouds  
Wind Chill: 42°   Ceiling: Unl
Heat Index: 48°   Visibility: 4mi
Dew Point: 46°   Wind: 16mph
Humidity: 93%   Direction: 190°S
Pressure: 30"   Gusts: NA
Location:  53.36°N, 6.33°E
Report Text: EHMA 230555Z AUTO 19014KT 6000 FEW022/// 09/08 Q1016
Loading
Personal Weather Stations






























Interactive Weather Map New forecast layout! Learn more

10-Day Weather Forecast

Advertisements
Track Severe Weather on mobile